KPIE/PIE METAR and TAF weather

Enter ICAO airport designator
Station Type Date Time Source
KPIE METAR 2020/03/31 08:53 UTC NOAA

KPIE 310853Z AUTO 21006KT 10SM CLR 23/20 A2991 RMK AO2 SLP129 T02330200 58020


Station Type Date Time Source
KPIE Decoded METAR 2020/03/31 08:53 UTC NOAA

ST PETERSBURG/CLEARWATER, FL, United States (KPIE) 27-55N 82-41W 4M
Mar 31, 2020 - 04:53 AM EDT / 2020.03.31 0853 UTC
Wind: from the SSW (210 degrees) at 7 MPH (6 KT):0
Visibility: 10 mile(s):0
Sky conditions: clear
Temperature: 73.9 F (23.3 C)
Dew Point: 68.0 F (20.0 C)
Relative Humidity: 81%
Pressure (altimeter): 29.91 in. Hg (1012 hPa)
Pressure tendency: 0.06 inches (2.0 hPa) lower than three hours ago
ob: KPIE 310853Z AUTO 21006KT 10SM CLR 23/20 A2991 RMK AO2 SLP129 T02330200 58020
cycle: 9

Station Type Date Time Source
KPIE TAF 2020/03/31 06:36 UTC NOAA

TAF KPIE 310533Z 3106/0106 VRB04KT P6SM FEW050 SCT250
FM311400 22012KT P6SM SCT020 SCT250
FM311700 24019G26KT P6SM SCT035 BKN250
FM010000 25014G24KT P6SM VCSH SCT025 BKN250

Example: see airport list